Time;durP1;ratioP1;P1;durP2;ratioP2;P2;SDS_P1;SDS_P2;PMS_P1;PMS_P2;Temp;Humidity;BMP_temperature;BMP_pressure;BME280_temperature;BME280_humidity;BME280_pressure;Samples;Min_cycle;Max_cycle;Signal;HPM_P1;HPM_P2
2021/01/19 00:02:14;;;;;;;59.63;22.13;;;-11.50;66.50;;;;;;4956936;29;20019;-79
2021/01/19 00:04:40;;;;;;;59.67;22.57;;;-11.50;66.50;;;;;;4956809;29;20023;-80
2021/01/19 00:07:05;;;;;;;63.27;23.30;;;-11.50;66.50;;;;;;4955612;29;20439;-80
2021/01/19 00:09:31;;;;;;;62.20;23.00;;;-11.50;66.50;;;;;;4956938;29;20031;-80
2021/01/19 00:11:57;;;;;;;57.60;23.17;;;-11.50;66.50;;;;;;4956984;29;20804;-78
2021/01/19 00:14:22;;;;;;;60.53;22.70;;;-11.50;66.60;;;;;;4956065;29;20110;-77
2021/01/19 00:16:48;;;;;;;58.37;22.47;;;-11.50;66.70;;;;;;4956023;29;20434;-78
2021/01/19 00:19:14;;;;;;;54.37;21.40;;;-11.40;66.80;;;;;;4955687;29;20480;-78
2021/01/19 00:21:39;;;;;;;59.67;22.93;;;-11.40;66.70;;;;;;4954685;29;20027;-78
2021/01/19 00:24:06;;;;;;;51.83;22.17;;;-11.40;66.70;;;;;;4955761;29;20489;-78
2021/01/19 00:26:31;;;;;;;53.33;20.73;;;-11.40;66.70;;;;;;4954609;29;20098;-78
2021/01/19 00:28:59;;;;;;;53.40;21.90;;;-11.40;66.80;;;;;;4955785;29;20078;-78
2021/01/19 00:31:24;;;;;;;66.20;24.53;;;-11.40;66.80;;;;;;4955692;29;20382;-78
2021/01/19 00:33:50;;;;;;;63.03;23.57;;;-11.40;66.70;;;;;;4973304;28;20039;-79
2021/01/19 00:36:16;;;;;;;61.77;22.73;;;-11.40;66.70;;;;;;4974621;28;20265;-78
2021/01/19 00:38:41;;;;;;;62.70;23.73;;;-11.40;66.80;;;;;;4956676;28;20026;-78
2021/01/19 00:41:07;;;;;;;73.70;26.77;;;-11.40;66.90;;;;;;4974426;28;20462;-79
2021/01/19 00:43:33;;;;;;;48.23;21.70;;;-11.30;67.00;;;;;;4973452;28;20113;-79
2021/01/19 00:45:58;;;;;;;54.20;21.53;;;-11.30;67.00;;;;;;4974260;28;20018;-80
2021/01/19 00:48:25;;;;;;;64.57;22.73;;;-11.30;67.00;;;;;;4974291;28;20026;-79
2021/01/19 00:50:50;;;;;;;64.70;23.63;;;-11.30;67.10;;;;;;4974420;28;20051;-79
2021/01/19 00:53:16;;;;;;;63.27;23.07;;;-11.20;67.20;;;;;;4974476;28;20054;-79
2021/01/19 00:55:42;;;;;;;53.67;21.10;;;-11.20;67.20;;;;;;4974512;28;20081;-79
2021/01/19 00:58:08;;;;;;;59.90;21.17;;;-11.20;67.10;;;;;;4974413;28;20026;-79
2021/01/19 01:00:34;;;;;;;54.93;21.67;;;-11.20;67.20;;;;;;4974450;28;20381;-79
2021/01/19 01:02:59;;;;;;;52.73;20.63;;;-11.10;67.20;;;;;;4974453;28;20022;-81
2021/01/19 01:05:25;;;;;;;54.70;21.03;;;-11.10;67.20;;;;;;4974594;28;20031;-80
2021/01/19 01:07:51;;;;;;;57.63;22.47;;;-11.10;67.10;;;;;;4957137;28;20355;-80
2021/01/19 01:10:17;;;;;;;56.93;22.17;;;-11.10;67.10;;;;;;4974499;28;20023;-79
2021/01/19 01:12:44;;;;;;;56.80;22.60;;;-11.10;67.00;;;;;;4974230;28;20043;-80
2021/01/19 01:15:11;;;;;;;58.77;22.93;;;-11.10;67.00;;;;;;4974116;28;20026;-80
2021/01/19 01:17:41;;;;;;;56.20;22.87;;;-11.10;67.10;;;;;;4974083;28;20027;-80
2021/01/19 01:20:08;;;;;;;47.37;22.20;;;-11.10;67.20;;;;;;4956563;28;20027;-79
2021/01/19 01:22:42;;;;;;;59.30;22.20;;;-11.10;67.20;;;;;;4974210;28;20368;-80
2021/01/19 01:25:12;;;;;;;55.10;21.73;;;-11.10;67.20;;;;;;4973910;28;20027;-80
2021/01/19 01:27:40;;;;;;;58.13;22.23;;;-11.10;67.20;;;;;;4973599;28;20079;-79
2021/01/19 01:30:07;;;;;;;50.00;21.60;;;-11.10;67.20;;;;;;4973771;28;20105;-80
2021/01/19 01:32:33;;;;;;;54.97;22.10;;;-11.00;67.30;;;;;;4936869;28;806333;-79
2021/01/19 01:34:58;;;;;;;51.43;20.33;;;-11.00;67.30;;;;;;4955180;29;20062;-80
2021/01/19 01:37:24;;;;;;;56.87;22.43;;;-11.00;67.20;;;;;;4953555;29;20027;-79
2021/01/19 01:39:50;;;;;;;52.03;21.23;;;-11.00;67.20;;;;;;4954981;29;20035;-80
2021/01/19 01:42:24;;;;;;;55.73;21.37;;;-11.00;67.10;;;;;;4955224;29;20062;-79
2021/01/19 01:44:51;;;;;;;58.90;21.30;;;-11.00;67.10;;;;;;4955080;29;20051;-79
2021/01/19 01:47:22;;;;;;;57.33;22.17;;;-11.00;67.00;;;;;;4955049;29;20174;-79
2021/01/19 01:49:50;;;;;;;61.22;22.92;;;-11.00;67.20;;;;;;4953008;29;20027;-79
2021/01/19 01:52:18;;;;;;;57.17;22.33;;;-11.10;67.10;;;;;;4954957;29;20058;-80
2021/01/19 01:54:48;;;;;;;56.10;22.67;;;-11.10;67.20;;;;;;4954006;29;20031;-79
2021/01/19 01:57:14;;;;;;;49.20;20.37;;;-11.10;67.20;;;;;;4954918;29;20495;-79
2021/01/19 01:59:39;;;;;;;48.27;20.83;;;-11.00;67.30;;;;;;4954609;29;20118;-78
2021/01/19 02:02:10;;;;;;;55.27;22.03;;;-11.00;67.30;;;;;;4937470;29;20102;-80
2021/01/19 02:04:36;;;;;;;52.67;20.37;;;-11.00;67.20;;;;;;4953718;29;20027;-79
2021/01/19 02:07:15;;;;;;;47.53;20.97;;;-11.10;67.10;;;;;;4954694;29;20028;-79
2021/01/19 02:09:44;;;;;;;56.57;22.27;;;-11.10;67.00;;;;;;4954231;29;20027;-80
2021/01/19 02:12:16;;;;;;;48.80;20.73;;;-11.10;67.00;;;;;;4954933;29;20493;-79
2021/01/19 02:14:59;;;;;;;53.00;20.65;;;-11.10;67.00;;;;;;4938059;29;20035;-80
2021/01/19 02:17:34;;;;;;;49.23;20.00;;;-11.10;67.10;;;;;;4954809;29;20074;-79
2021/01/19 02:20:14;;;;;;;55.83;21.23;;;-11.20;67.00;;;;;;4954636;29;20107;-80
2021/01/19 02:22:49;;;;;;;50.33;20.90;;;-11.20;67.20;;;;;;4953570;29;20034;-80
2021/01/19 02:25:26;;;;;;;54.47;21.90;;;-11.10;67.30;;;;;;4954660;29;20030;-80
2021/01/19 02:28:21;;;;;;;55.83;21.37;;;-11.20;67.30;;;;;;4954797;29;20034;-80
2021/01/19 02:31:13;;;;;;;50.20;19.50;;;-11.10;67.40;;;;;;4951023;29;20042;-80
2021/01/19 02:34:10;;;;;;;62.35;21.08;;;-11.10;67.40;;;;;;4951931;28;20410;-80
2021/01/19 02:37:26;;;;;;;54.90;20.67;;;-11.20;67.20;;;;;;4954338;28;20034;-80
2021/01/19 02:40:05;;;;;;;53.07;20.80;;;-11.10;67.30;;;;;;4933267;29;20479;-80
2021/01/19 02:42:43;;;;;;;52.07;20.50;;;-11.20;67.30;;;;;;4968332;28;20035;-80
2021/01/19 02:45:10;;;;;;;52.23;21.10;;;-11.20;67.30;;;;;;4956485;28;20373;-80
2021/01/19 02:47:38;;;;;;;55.33;20.30;;;-11.20;67.30;;;;;;4973946;28;20023;-80
2021/01/19 02:50:07;;;;;;;51.93;20.67;;;-11.20;67.40;;;;;;4974223;28;20035;-80
2021/01/19 02:52:34;;;;;;;50.90;19.73;;;-11.20;67.40;;;;;;4974374;28;20031;-80
2021/01/19 02:55:02;;;;;;;47.87;20.60;;;-11.20;67.40;;;;;;4973841;28;20035;-80
2021/01/19 02:57:27;;;;;;;51.77;19.97;;;-11.10;67.60;;;;;;4974126;28;20106;-80
2021/01/19 03:00:34;;;;;;;45.20;19.27;;;-11.10;67.60;;;;;;4973648;28;20182;-80
2021/01/19 03:03:01;;;;;;;46.60;19.23;;;-11.10;67.50;;;;;;4972188;28;20040;-80
2021/01/19 03:05:29;;;;;;;53.43;19.10;;;-11.10;67.50;;;;;;4977214;28;20046;-80
2021/01/19 03:07:56;;;;;;;46.90;20.30;;;-11.10;67.60;;;;;;4975679;28;20082;-80
2021/01/19 03:10:23;;;;;;;88.03;32.37;;;-11.10;67.60;;;;;;4976944;28;20042;-80
2021/01/19 03:12:49;;;;;;;59.00;21.87;;;-11.10;67.50;;;;;;4977052;28;20034;-80
2021/01/19 03:15:17;;;;;;;46.77;19.87;;;-11.10;67.60;;;;;;4959944;28;20223;-80
2021/01/19 03:17:43;;;;;;;54.03;21.27;;;-11.10;67.70;;;;;;4977254;28;20030;-80
2021/01/19 03:20:14;;;;;;;58.23;21.57;;;-11.10;67.60;;;;;;4976563;28;20026;-80
2021/01/19 03:22:41;;;;;;;57.57;20.40;;;-11.00;67.60;;;;;;4958776;28;20078;-80
2021/01/19 03:25:07;;;;;;;59.67;21.03;;;-11.10;68.00;;;;;;4975605;28;20027;-80
2021/01/19 03:27:33;;;;;;;52.60;20.03;;;-11.10;67.40;;;;;;4975731;28;20019;-80
2021/01/19 03:29:59;;;;;;;49.63;19.50;;;-11.10;68.00;;;;;;4975601;28;20026;-80
2021/01/19 03:32:25;;;;;;;56.43;19.63;;;-11.20;67.30;;;;;;4975644;28;20046;-81
2021/01/19 03:34:50;;;;;;;58.50;19.60;;;-11.20;67.20;;;;;;4976239;28;20026;-80
2021/01/19 03:37:16;;;;;;;57.57;20.83;;;-11.30;67.10;;;;;;4974830;28;20034;-80
2021/01/19 03:39:42;;;;;;;49.97;19.80;;;-11.30;67.10;;;;;;4976469;28;20027;-80
2021/01/19 03:42:07;;;;;;;47.63;19.40;;;-11.30;67.00;;;;;;4975512;28;20054;-80
2021/01/19 03:44:33;;;;;;;53.87;20.77;;;-11.40;67.10;;;;;;4975533;28;20043;-80
2021/01/19 03:46:59;;;;;;;53.70;20.07;;;-11.40;67.10;;;;;;4975455;28;20031;-79
2021/01/19 03:49:25;;;;;;;51.53;19.93;;;-11.50;67.10;;;;;;4975625;28;20113;-79
2021/01/19 03:51:50;;;;;;;53.23;19.57;;;-11.50;67.20;;;;;;4958293;28;20042;-79
2021/01/19 03:54:16;;;;;;;49.13;19.20;;;-11.50;67.20;;;;;;4975631;28;20027;-80
2021/01/19 03:56:42;;;;;;;58.80;20.60;;;-11.50;67.20;;;;;;4975656;28;20037;-80
2021/01/19 03:59:07;;;;;;;47.53;19.33;;;-11.60;67.20;;;;;;4975744;28;20027;-80
2021/01/19 04:01:39;;;;;;;54.57;19.93;;;-11.60;67.20;;;;;;4975822;28;20019;-80
2021/01/19 04:04:05;;;;;;;48.78;19.00;;;-11.60;67.20;;;;;;4976035;28;20019;-80
2021/01/19 04:06:31;;;;;;;43.27;17.93;;;-11.60;67.20;;;;;;4974676;28;20033;-80
2021/01/19 04:08:57;;;;;;;56.60;20.67;;;-11.70;67.20;;;;;;4975648;28;20026;-80
2021/01/19 04:11:23;;;;;;;47.57;19.33;;;-11.70;67.20;;;;;;4957922;28;20066;-80
2021/01/19 04:13:48;;;;;;;50.43;19.37;;;-11.70;67.20;;;;;;4975081;28;20045;-79
2021/01/19 04:16:15;;;;;;;57.73;21.03;;;-11.70;67.30;;;;;;4975382;28;20737;-79
2021/01/19 04:18:41;;;;;;;58.00;20.73;;;-11.80;67.20;;;;;;4974430;28;20027;-80
2021/01/19 04:21:07;;;;;;;54.67;21.17;;;-11.80;67.20;;;;;;4975479;28;20082;-79
2021/01/19 04:23:33;;;;;;;52.37;20.57;;;-11.80;67.40;;;;;;4977053;28;20078;-80
2021/01/19 04:25:58;;;;;;;62.00;20.53;;;-11.80;67.40;;;;;;4975838;28;20102;-80
2021/01/19 04:28:24;;;;;;;53.97;21.10;;;-11.80;67.40;;;;;;4976898;28;20027;-80
2021/01/19 04:30:50;;;;;;;57.80;21.13;;;-11.90;67.40;;;;;;4976181;28;20065;-79
2021/01/19 04:33:15;;;;;;;50.50;18.97;;;-11.80;67.50;;;;;;4976409;28;20054;-78
2021/01/19 04:35:41;;;;;;;49.73;19.73;;;-11.80;67.40;;;;;;4976505;28;20554;-80
2021/01/19 04:38:07;;;;;;;51.93;20.40;;;-11.90;67.30;;;;;;4976196;28;20086;-79
2021/01/19 04:40:34;;;;;;;55.77;19.33;;;-11.90;67.20;;;;;;4975779;28;20031;-79
2021/01/19 04:43:01;;;;;;;56.03;22.07;;;-11.90;67.30;;;;;;4975907;28;20046;-80
2021/01/19 04:45:27;;;;;;;46.87;18.73;;;-12.00;67.20;;;;;;4975850;28;20023;-80
2021/01/19 04:47:53;;;;;;;50.10;20.60;;;-12.00;67.20;;;;;;4975531;28;20126;-80
2021/01/19 04:50:19;;;;;;;49.30;19.87;;;-12.00;67.30;;;;;;4975293;28;20473;-80
2021/01/19 04:52:46;;;;;;;55.47;20.63;;;-12.10;67.40;;;;;;4975147;28;20030;-79
2021/01/19 04:55:27;;;;;;;59.80;20.17;;;-12.10;67.40;;;;;;4958079;28;20125;-79
2021/01/19 04:58:01;;;;;;;58.07;19.93;;;-12.10;67.30;;;;;;4974547;28;20382;-80
2021/01/19 05:00:37;;;;;;;52.63;20.80;;;-12.10;67.30;;;;;;4974449;28;20019;-76
2021/01/19 05:03:09;;;;;;;54.17;20.53;;;-12.10;67.40;;;;;;4974163;28;20023;-77
2021/01/19 05:05:37;;;;;;;59.20;21.33;;;-12.10;67.80;;;;;;4974192;28;20057;-76
2021/01/19 05:08:15;;;;;;;59.23;19.93;;;-12.10;67.60;;;;;;4973440;28;20862;-76
2021/01/19 05:11:02;;;;;;;53.40;19.33;;;-12.10;67.70;;;;;;4972100;28;20185;-76
2021/01/19 05:13:50;;;;;;;59.23;21.10;;;-12.10;67.70;;;;;;4972763;28;20043;-76
2021/01/19 05:16:23;;;;;;;63.83;22.90;;;-12.10;67.70;;;;;;4972598;28;20027;-76
2021/01/19 05:18:49;;;;;;;59.87;23.00;;;-12.10;67.70;;;;;;4973237;28;20422;-76
2021/01/19 05:21:15;;;;;;;55.60;20.47;;;-12.10;67.70;;;;;;4973297;28;20470;-76
2021/01/19 05:23:41;;;;;;;51.30;20.47;;;-12.10;67.70;;;;;;4972452;28;20023;-77
2021/01/19 05:26:09;;;;;;;67.23;25.97;;;-12.10;67.70;;;;;;4973413;28;20027;-78
2021/01/19 05:28:41;;;;;;;52.50;21.07;;;-12.10;67.80;;;;;;4973237;28;20015;-77
2021/01/19 05:31:16;;;;;;;;;;;-12.10;67.80;;;;;;4973553;28;20038;-76
2021/01/19 05:33:53;;;;;;;66.03;22.30;;;-12.10;67.80;;;;;;4954626;28;19918;-76
2021/01/19 05:36:20;;;;;;;55.37;23.10;;;-12.00;67.80;;;;;;4953559;29;20409;-77
2021/01/19 05:38:53;;;;;;;52.43;21.43;;;-12.10;67.80;;;;;;4953979;29;20110;-77
2021/01/19 05:41:32;;;;;;;54.63;21.97;;;-12.00;68.00;;;;;;4953697;29;20038;-77
2021/01/19 05:44:10;;;;;;;55.57;22.67;;;-12.00;68.00;;;;;;4953848;29;20071;-77
2021/01/19 05:46:45;;;;;;;56.03;21.90;;;-12.00;68.10;;;;;;4952242;28;20027;-77
2021/01/19 05:49:42;;;;;;;55.43;22.07;;;-11.90;68.20;;;;;;4953383;29;20419;-77
2021/01/19 05:52:10;;;;;;;59.87;21.23;;;-11.90;68.20;;;;;;4948260;29;20031;-77
2021/01/19 05:54:39;;;;;;;48.23;20.60;;;-11.90;68.20;;;;;;4953468;29;20058;-77
2021/01/19 05:57:22;;;;;;;54.63;20.80;;;-11.90;68.10;;;;;;4952838;29;20047;-76
2021/01/19 06:00:08;;;;;;;62.33;21.27;;;-11.80;68.20;;;;;;4953327;29;20027;-77
2021/01/19 06:02:42;;;;;;;52.50;21.00;;;-11.80;68.10;;;;;;4953034;29;20070;-77
2021/01/19 06:05:08;;;;;;;50.00;20.07;;;-11.80;68.10;;;;;;4954297;29;20378;-77
2021/01/19 06:07:34;;;;;;;56.30;20.67;;;-11.70;68.20;;;;;;4953329;29;20034;-77
2021/01/19 06:10:09;;;;;;;49.47;20.57;;;-11.70;68.20;;;;;;4953146;29;20031;-76
2021/01/19 06:12:35;;;;;;;52.43;21.23;;;-11.70;68.20;;;;;;4953261;29;20059;-77
2021/01/19 06:15:01;;;;;;;56.70;20.83;;;-11.70;68.20;;;;;;4953078;29;20102;-77
2021/01/19 06:17:27;;;;;;;51.83;21.23;;;-11.60;68.30;;;;;;4953187;29;20042;-78
2021/01/19 06:19:57;;;;;;;54.93;20.20;;;-11.60;68.30;;;;;;4952770;29;20039;-78
2021/01/19 06:22:24;;;;;;;50.83;20.17;;;-11.50;68.50;;;;;;4953229;29;20024;-77
2021/01/19 06:24:51;;;;;;;51.60;21.33;;;-11.50;68.40;;;;;;4952725;29;20023;-77
2021/01/19 06:27:20;;;;;;;52.17;20.67;;;-11.40;68.40;;;;;;4953196;29;20024;-79
2021/01/19 06:29:50;;;;;;;66.83;25.53;;;-11.40;68.50;;;;;;4954558;29;20031;-81
2021/01/19 06:32:17;;;;;;;56.43;22.10;;;-11.30;68.70;;;;;;4961416;28;20054;-80
2021/01/19 06:34:44;;;;;;;51.77;23.10;;;-11.20;68.70;;;;;;4974163;28;20066;-81
2021/01/19 06:37:23;;;;;;;57.13;22.27;;;-11.10;68.80;;;;;;4975697;28;20486;-80
2021/01/19 06:39:58;;;;;;;49.63;21.80;;;-11.00;68.90;;;;;;4976974;28;20023;-82
2021/01/19 06:42:30;;;;;;;60.43;22.53;;;-10.80;69.00;;;;;;4977449;28;20022;-82
2021/01/19 06:45:00;;;;;;;;;;;-10.70;68.90;;;;;;4978205;28;20122;-81
2021/01/19 06:47:26;;;;;;;59.07;24.50;;;-10.60;69.20;;;;;;4976514;28;19917;-81
2021/01/19 06:49:53;;;;;;;50.53;21.70;;;-10.30;70.00;;;;;;4977598;28;20066;-81
2021/01/19 06:52:20;;;;;;;67.10;26.40;;;-9.90;70.90;;;;;;4977840;28;20464;-80
2021/01/19 06:54:52;;;;;;;53.33;21.37;;;-9.40;71.50;;;;;;4959405;28;20110;-82
2021/01/19 06:57:52;;;;;;;57.78;22.85;;;-8.90;71.60;;;;;;4977251;28;20027;-80
2021/01/19 07:00:21;;;;;;;60.17;24.17;;;-8.50;70.90;;;;;;4976629;28;20027;-82
2021/01/19 07:02:51;;;;;;;59.37;21.03;;;-8.30;69.90;;;;;;4976701;28;20101;-81
2021/01/19 07:05:18;;;;;;;51.17;22.30;;;-8.20;69.20;;;;;;4975315;28;20027;-80
2021/01/19 07:07:56;;;;;;;42.00;19.60;;;-8.20;68.80;;;;;;4976747;28;20025;-81
2021/01/19 07:10:52;;;;;;;54.00;21.10;;;-8.10;68.50;;;;;;4976295;28;20027;-80
2021/01/19 07:13:21;;;;;;;49.60;22.37;;;-8.00;68.40;;;;;;4964320;28;20047;-81
2021/01/19 07:16:02;;;;;;;49.97;22.37;;;-7.90;68.40;;;;;;4976825;28;20054;-79
2021/01/19 07:19:02;;;;;;;53.70;22.70;;;-7.80;68.30;;;;;;4976124;28;20074;-83
2021/01/19 07:22:05;;;;;;;59.60;23.17;;;-7.50;68.70;;;;;;4976642;28;20033;-80
2021/01/19 07:24:42;;;;;;;48.00;20.60;;;-7.20;68.70;;;;;;4980296;28;20014;-81
2021/01/19 07:27:13;;;;;;;47.33;20.88;;;-6.80;69.10;;;;;;4995512;28;20023;-81
2021/01/19 07:29:39;;;;;;;48.83;21.15;;;-6.40;68.90;;;;;;4992209;28;20397;-81
2021/01/19 07:32:08;;;;;;;47.60;21.02;;;-6.10;68.30;;;;;;4982555;28;20038;-82
2021/01/19 07:34:39;;;;;;;52.78;24.15;;;-5.80;67.60;;;;;;4976143;28;20031;-81
2021/01/19 07:37:07;;;;;;;54.88;22.88;;;-5.60;67.40;;;;;;4976484;28;20099;-81
2021/01/19 07:39:43;;;;;;;52.03;22.00;;;-5.30;66.80;;;;;;4973092;28;20540;-80
2021/01/19 07:42:19;;;;;;;49.50;21.95;;;-5.00;66.70;;;;;;4994567;28;20034;-80
2021/01/19 07:44:58;;;;;;;45.20;20.52;;;-4.70;66.50;;;;;;4995103;28;20045;-80
2021/01/19 07:47:41;;;;;;;49.20;21.77;;;-4.30;66.10;;;;;;4994874;28;20023;-81
2021/01/19 07:50:10;;;;;;;48.50;20.77;;;-4.00;65.50;;;;;;4995233;28;20038;-80
2021/01/19 07:52:41;;;;;;;48.97;22.17;;;-3.70;64.80;;;;;;4995048;28;20026;-80
2021/01/19 07:55:18;;;;;;;49.70;22.67;;;-3.50;64.20;;;;;;4984346;28;20033;-81
2021/01/19 07:57:45;;;;;;;46.38;22.75;;;-3.30;63.70;;;;;;5006823;28;20022;-81
2021/01/19 08:00:12;;;;;;;51.40;21.85;;;-3.10;63.50;;;;;;5005750;28;20057;-82
2021/01/19 08:02:38;;;;;;;48.08;22.73;;;-2.90;62.90;;;;;;5012568;28;20018;-81
2021/01/19 08:05:05;;;;;;;40.92;20.98;;;-2.70;62.50;;;;;;4999510;28;20022;-82
2021/01/19 08:07:37;;;;;;;47.85;21.50;;;-2.40;62.10;;;;;;4981616;28;20073;-83
2021/01/19 08:10:16;;;;;;;49.28;24.10;;;-2.20;61.20;;;;;;4999308;28;20030;-81
2021/01/19 08:12:43;;;;;;;45.45;22.65;;;-2.10;60.90;;;;;;4996638;28;20101;-81
2021/01/19 08:15:09;;;;;;;42.90;21.35;;;-1.90;60.40;;;;;;4995825;28;20078;-81
2021/01/19 08:17:48;;;;;;;42.47;21.58;;;-1.70;60.10;;;;;;4977162;28;20117;-80
2021/01/19 08:20:23;;;;;;;44.92;20.75;;;-1.50;59.50;;;;;;4991344;28;20045;-81
2021/01/19 08:22:48;;;;;;;46.03;22.33;;;-1.30;59.00;;;;;;4975383;28;20059;-81
2021/01/19 08:25:28;;;;;;;40.58;21.80;;;-1.10;58.50;;;;;;4976749;28;20406;-80
2021/01/19 08:27:57;;;;;;;40.95;21.50;;;-1.00;58.30;;;;;;4974004;28;20492;-82
2021/01/19 08:30:30;;;;;;;46.40;22.02;;;-0.90;57.40;;;;;;4973203;28;20027;-81
2021/01/19 08:32:56;;;;;;;45.50;24.95;;;-0.80;56.90;;;;;;4961086;28;20078;-81
2021/01/19 08:35:24;;;;;;;48.55;22.92;;;-0.70;56.50;;;;;;4954686;29;20023;-77
2021/01/19 08:37:52;;;;;;;44.95;22.10;;;-0.60;55.90;;;;;;4937167;29;20420;-78
2021/01/19 08:40:23;;;;;;;44.83;22.02;;;-0.50;55.70;;;;;;4954875;29;20027;-77
2021/01/19 08:42:49;;;;;;;44.53;21.60;;;-0.30;54.90;;;;;;4954037;28;20032;-78
2021/01/19 08:45:30;;;;;;;50.25;21.55;;;-0.20;54.20;;;;;;4952970;29;20023;-78
2021/01/19 08:48:01;;;;;;;39.95;21.02;;;-0.20;53.60;;;;;;4937034;29;20621;-79
2021/01/19 08:50:28;;;;;;;43.70;21.35;;;-0.10;53.30;;;;;;4952806;29;20028;-77
2021/01/19 08:52:55;;;;;;;47.08;21.30;;;-0.10;53.00;;;;;;4952925;29;20481;-79
2021/01/19 08:55:25;;;;;;;54.42;22.02;;;-0.10;52.20;;;;;;4954093;29;20031;-79
2021/01/19 08:57:55;;;;;;;52.85;22.17;;;0.10;52.10;;;;;;4951591;28;20394;-79
2021/01/19 09:00:28;;;;;;;54.95;25.02;;;0.10;51.60;;;;;;4936696;29;20038;-78
2021/01/19 09:02:58;;;;;;;59.97;26.73;;;0.20;51.20;;;;;;4953963;29;20115;-78
2021/01/19 09:05:30;;;;;;;43.38;21.83;;;0.30;50.90;;;;;;4953913;28;20520;-79
2021/01/19 09:07:57;;;;;;;47.33;21.60;;;0.40;50.30;;;;;;4953699;29;20038;-79
2021/01/19 09:10:29;;;;;;;44.10;21.23;;;0.50;50.00;;;;;;4936790;29;20036;-78
2021/01/19 09:12:56;;;;;;;43.60;20.30;;;0.50;50.10;;;;;;4953201;29;20035;-79
2021/01/19 09:15:25;;;;;;;47.97;20.80;;;0.60;49.10;;;;;;4954044;29;20386;-79
2021/01/19 09:17:58;;;;;;;46.28;21.60;;;0.60;48.90;;;;;;4953433;28;20031;-78
2021/01/19 09:20:27;;;;;;;43.95;22.48;;;0.70;48.60;;;;;;4955136;28;20031;-79
2021/01/19 09:22:53;;;;;;;43.15;21.95;;;0.90;48.40;;;;;;4973016;28;20082;-78
2021/01/19 09:25:23;;;;;;;45.60;22.70;;;1.00;48.40;;;;;;4972411;28;20027;-78
2021/01/19 09:28:02;;;;;;;45.30;21.50;;;1.20;48.00;;;;;;4972168;28;20023;-78
2021/01/19 09:30:36;;;;;;;42.15;21.20;;;1.30;47.20;;;;;;4972756;28;20027;-79
2021/01/19 09:33:06;;;;;;;53.30;24.83;;;1.40;47.10;;;;;;4972603;28;20134;-77
2021/01/19 09:35:33;;;;;;;44.80;21.23;;;1.60;47.10;;;;;;4972477;28;20023;-78
2021/01/19 09:37:59;;;;;;;44.50;22.58;;;1.70;46.70;;;;;;4971188;28;20126;-78
2021/01/19 09:40:57;;;;;;;43.58;21.10;;;1.80;46.60;;;;;;4954411;28;20079;-78
2021/01/19 09:43:23;;;;;;;40.95;20.15;;;2.00;46.10;;;;;;4955830;28;20059;-78
2021/01/19 09:45:49;;;;;;;55.65;22.48;;;2.00;45.50;;;;;;4954466;29;20439;-78
2021/01/19 09:48:18;;;;;;;43.88;21.83;;;2.00;45.20;;;;;;4952983;29;20463;-78
2021/01/19 09:50:44;;;;;;;42.03;21.20;;;2.00;45.00;;;;;;4954859;28;20028;-77
2021/01/19 09:53:10;;;;;;;52.35;22.75;;;1.90;45.00;;;;;;4937576;29;20332;-78
2021/01/19 09:55:37;;;;;;;47.25;22.25;;;1.90;45.00;;;;;;4953046;29;20028;-78
2021/01/19 09:58:05;;;;;;;47.00;22.88;;;1.80;44.90;;;;;;4952861;29;20027;-77
2021/01/19 10:00:36;;;;;;;42.35;20.42;;;1.70;44.60;;;;;;4953240;28;20037;-77
2021/01/19 10:03:20;;;;;;;38.42;20.20;;;1.60;44.40;;;;;;4935775;28;20023;-78
2021/01/19 10:06:05;;;;;;;45.85;20.25;;;1.50;44.20;;;;;;4953145;29;20031;-77
2021/01/19 10:08:32;;;;;;;44.30;21.52;;;1.40;45.00;;;;;;4953066;29;20027;-77
2021/01/19 10:10:59;;;;;;;46.70;19.83;;;1.30;44.40;;;;;;4954723;28;20035;-77
2021/01/19 10:13:27;;;;;;;52.50;24.10;;;1.30;44.40;;;;;;4956079;29;20031;-78
2021/01/19 10:16:01;;;;;;;47.22;20.38;;;1.30;44.30;;;;;;4939534;29;20477;-77
2021/01/19 10:18:27;;;;;;;40.55;19.88;;;1.40;44.30;;;;;;4956818;29;20050;-78
2021/01/19 10:20:59;;;;;;;48.95;21.13;;;1.50;44.10;;;;;;4956661;29;20094;-79
2021/01/19 10:23:33;;;;;;;48.35;21.23;;;1.60;43.80;;;;;;4939245;29;20517;-78
2021/01/19 10:26:12;;;;;;;43.35;20.40;;;1.80;43.60;;;;;;4955935;28;20035;-77
2021/01/19 10:28:43;;;;;;;44.67;23.85;;;2.10;43.40;;;;;;4938965;29;20047;-77
2021/01/19 10:31:17;;;;;;;44.78;22.50;;;2.40;43.20;;;;;;4955394;28;20032;-76
2021/01/19 10:34:13;;;;;;;45.13;22.55;;;2.60;42.90;;;;;;4957392;28;20054;-77
2021/01/19 10:36:50;;;;;;;42.25;22.30;;;2.70;42.30;;;;;;4975344;28;20031;-78
2021/01/19 10:39:15;;;;;;;58.00;25.80;;;2.70;41.90;;;;;;4975281;28;20041;-78
2021/01/19 10:41:41;;;;;;;70.63;24.65;;;2.70;42.30;;;;;;4973999;28;20038;-77
2021/01/19 10:44:11;;;;;;;49.15;25.23;;;2.80;41.90;;;;;;4975965;28;20027;-78
2021/01/19 10:46:40;;;;;;;51.05;24.05;;;2.80;41.40;;;;;;4976226;28;20038;-78
2021/01/19 10:49:07;;;;;;;58.40;24.73;;;2.80;41.50;;;;;;4975538;28;20034;-80
2021/01/19 10:51:34;;;;;;;43.03;23.42;;;2.90;41.40;;;;;;4974606;28;20030;-78
2021/01/19 10:54:03;;;;;;;38.63;20.92;;;3.00;41.30;;;;;;4975827;28;20033;-78
2021/01/19 10:56:29;;;;;;;41.75;20.17;;;3.00;41.10;;;;;;4975692;28;20034;-78
2021/01/19 10:58:54;;;;;;;47.80;21.35;;;3.10;41.10;;;;;;4975677;28;20034;-77
2021/01/19 11:01:20;;;;;;;44.67;21.17;;;3.10;40.80;;;;;;4975500;28;20034;-79
2021/01/19 11:03:46;;;;;;;36.45;19.10;;;3.10;40.70;;;;;;4975779;28;20037;-78
2021/01/19 11:06:11;;;;;;;35.45;19.52;;;3.10;40.60;;;;;;4975537;28;20031;-78
2021/01/19 11:08:40;;;;;;;38.80;19.23;;;3.10;40.60;;;;;;4975841;28;20090;-77
2021/01/19 11:11:05;;;;;;;49.92;21.45;;;2.90;40.60;;;;;;4975185;28;20048;-77
2021/01/19 11:13:31;;;;;;;40.13;20.00;;;2.60;40.40;;;;;;4974744;28;20134;-78
2021/01/19 11:15:58;;;;;;;41.55;20.30;;;2.40;40.40;;;;;;4976051;28;20038;-79
2021/01/19 11:18:23;;;;;;;57.80;20.80;;;2.10;40.40;;;;;;4974795;28;20023;-79
2021/01/19 11:20:51;;;;;;;41.28;20.27;;;1.70;40.40;;;;;;4974352;28;20126;-79
2021/01/19 11:23:17;;;;;;;55.90;19.23;;;1.40;40.50;;;;;;4973817;28;20521;-78
2021/01/19 11:25:43;;;;;;;46.35;19.05;;;1.20;40.50;;;;;;4973839;28;20106;-78
2021/01/19 11:28:08;;;;;;;46.05;19.30;;;1.00;40.70;;;;;;4975255;28;20031;-78
2021/01/19 11:30:34;;;;;;;58.55;20.77;;;0.90;41.00;;;;;;4974925;28;20054;-77
2021/01/19 11:33:00;;;;;;;60.17;19.42;;;0.90;41.00;;;;;;4974094;28;20093;-79
2021/01/19 11:35:26;;;;;;;47.85;19.30;;;0.90;41.00;;;;;;4974706;28;20501;-79
2021/01/19 11:37:54;;;;;;;31.25;18.15;;;1.00;41.00;;;;;;4974269;28;20058;-79
2021/01/19 11:40:20;;;;;;;39.58;19.40;;;1.10;41.00;;;;;;4974347;28;20039;-80
2021/01/19 11:42:46;;;;;;;59.25;20.58;;;1.10;40.60;;;;;;4974629;28;20399;-79
2021/01/19 11:45:12;;;;;;;39.00;18.83;;;1.10;40.50;;;;;;4972299;28;20042;-79
2021/01/19 11:47:40;;;;;;;43.75;19.45;;;1.10;40.80;;;;;;4975596;28;20035;-77
2021/01/19 11:50:07;;;;;;;40.08;19.45;;;1.10;41.10;;;;;;4976412;28;20073;-79
2021/01/19 11:52:33;;;;;;;51.03;23.20;;;1.10;41.00;;;;;;4974497;28;20042;-78
2021/01/19 11:54:58;;;;;;;54.70;23.17;;;1.00;40.90;;;;;;4973533;28;20035;-80
2021/01/19 11:57:24;;;;;;;45.83;20.05;;;0.90;40.70;;;;;;4976000;28;20386;-79
2021/01/19 11:59:50;;;;;;;55.88;19.80;;;0.80;40.70;;;;;;4974469;28;20113;-80
2021/01/19 12:02:15;;;;;;;50.40;21.73;;;0.60;40.40;;;;;;4977518;28;20086;-80
2021/01/19 12:04:41;;;;;;;43.58;21.45;;;0.50;40.40;;;;;;4978965;28;20922;-79
2021/01/19 12:07:07;;;;;;;55.05;21.60;;;0.40;40.50;;;;;;4979614;28;20037;-79
2021/01/19 12:09:33;;;;;;;51.30;20.25;;;0.30;40.50;;;;;;4977685;28;20034;-80
2021/01/19 12:11:58;;;;;;;72.47;21.77;;;0.10;40.60;;;;;;4977877;28;20407;-80
2021/01/19 12:14:24;;;;;;;45.67;18.58;;;-0.10;40.60;;;;;;4992839;28;20034;-80
2021/01/19 12:16:54;;;;;;;46.33;18.73;;;-0.50;40.50;;;;;;4978043;28;20023;-81
2021/01/19 12:19:21;;;;;;;38.55;16.52;;;-0.80;40.70;;;;;;4977325;28;20031;-80
2021/01/19 12:21:48;;;;;;;64.57;17.55;;;-1.10;40.80;;;;;;4978717;28;20027;-80
2021/01/19 12:24:14;;;;;;;49.92;17.08;;;-1.40;41.00;;;;;;4994061;28;20113;-80
2021/01/19 12:26:40;;;;;;;50.58;15.05;;;-1.70;41.10;;;;;;4975708;28;20055;-80
2021/01/19 12:29:06;;;;;;;92.85;31.73;;;-2.00;41.20;;;;;;4974944;28;20046;-81
2021/01/19 12:31:32;;;;;;;42.03;16.92;;;-2.30;41.40;;;;;;4975447;28;20373;-81
2021/01/19 12:33:58;;;;;;;45.33;15.02;;;-2.50;41.60;;;;;;4994280;28;20093;-80
2021/01/19 12:36:24;;;;;;;36.33;13.82;;;-2.80;41.70;;;;;;4995058;28;20026;-81
2021/01/19 12:38:50;;;;;;;34.72;13.45;;;-3.00;41.90;;;;;;4994089;28;20109;-80
2021/01/19 12:41:16;;;;;;;35.20;13.20;;;-3.20;42.10;;;;;;4994556;28;20057;-80